createdAt,value
2022-08-31T00:01:58.290Z,48.31
2022-08-31T00:04:30.168Z,48.81
2022-08-31T00:07:00.151Z,48.99
2022-08-31T00:09:31.268Z,48.79
2022-08-31T00:12:01.075Z,48.72
2022-08-31T00:14:33.555Z,48.90
2022-08-31T00:17:03.506Z,48.76
2022-08-31T00:19:33.452Z,48.65
2022-08-31T00:22:03.340Z,48.86
2022-08-31T00:24:34.014Z,49.00
2022-08-31T00:27:04.120Z,48.71
2022-08-31T00:29:36.607Z,48.92
2022-08-31T00:32:06.812Z,48.79
2022-08-31T00:34:36.788Z,48.89
2022-08-31T00:37:06.871Z,49.06
2022-08-31T00:39:39.634Z,49.50
2022-08-31T00:42:12.264Z,49.37
2022-08-31T00:44:44.856Z,49.45
2022-08-31T00:47:15.702Z,49.22
2022-08-31T00:49:50.263Z,49.29
2022-08-31T00:52:24.626Z,49.57
2022-08-31T00:54:57.968Z,49.19
2022-08-31T00:57:34.744Z,49.61
2022-08-31T01:00:12.641Z,49.45
2022-08-31T01:02:44.592Z,49.50
2022-08-31T01:05:15.699Z,49.67
2022-08-31T01:07:47.852Z,49.45
2022-08-31T01:10:19.519Z,49.26
2022-08-31T01:12:50.528Z,49.87
2022-08-31T01:15:24.948Z,49.22
2022-08-31T01:17:57.908Z,49.67
2022-08-31T01:20:32.739Z,49.83
2022-08-31T01:23:15.584Z,49.67
2022-08-31T01:25:47.500Z,49.63
2022-08-31T01:28:21.955Z,49.86
2022-08-31T01:31:04.276Z,49.83
2022-08-31T01:33:39.104Z,50.12
2022-08-31T01:36:15.408Z,49.92
2022-08-31T01:38:52.935Z,50.06
2022-08-31T01:41:23.799Z,49.90
2022-08-31T01:43:55.355Z,50.19
2022-08-31T01:46:25.315Z,50.10
2022-08-31T01:48:56.819Z,50.19
2022-08-31T01:51:26.923Z,50.23
2022-08-31T01:53:59.512Z,50.18
2022-08-31T01:56:33.593Z,50.29
2022-08-31T01:59:08.511Z,50.22
2022-08-31T02:02:00.627Z,50.39
2022-08-31T02:04:32.164Z,50.46
2022-08-31T02:07:03.797Z,50.36
2022-08-31T02:09:39.771Z,50.77
2022-08-31T02:12:10.087Z,50.61
2022-08-31T02:14:42.801Z,50.47
2022-08-31T02:17:12.874Z,50.94
2022-08-31T02:19:43.309Z,50.78
2022-08-31T02:22:13.494Z,50.68
2022-08-31T02:24:46.261Z,50.65
2022-08-31T02:27:16.548Z,51.00
2022-08-31T02:29:47.422Z,51.18
2022-08-31T02:32:21.316Z,50.96
2022-08-31T02:34:51.596Z,50.84
2022-08-31T02:37:22.363Z,51.14
2022-08-31T02:39:55.176Z,51.31
2022-08-31T02:42:26.637Z,51.23
2022-08-31T02:44:58.958Z,50.76
2022-08-31T02:47:31.163Z,51.47
2022-08-31T02:50:15.939Z,50.96
2022-08-31T02:52:48.014Z,51.32
2022-08-31T02:55:22.045Z,50.70
2022-08-31T02:57:53.232Z,50.91
2022-08-31T03:00:25.995Z,50.88
2022-08-31T03:02:56.039Z,51.07
2022-08-31T03:05:27.194Z,50.89
2022-08-31T03:07:57.264Z,51.21
2022-08-31T03:10:29.790Z,50.94
2022-08-31T03:13:00.083Z,51.23
2022-08-31T03:15:30.699Z,51.16
2022-08-31T03:18:06.783Z,51.08
2022-08-31T03:20:37.705Z,51.24
2022-08-31T03:23:09.291Z,51.01
2022-08-31T03:25:42.415Z,51.29
2022-08-31T03:28:12.926Z,51.08
2022-08-31T03:30:46.484Z,51.38
2022-08-31T03:33:16.754Z,51.38
2022-08-31T03:35:47.044Z,51.23
2022-08-31T03:38:19.882Z,51.18
2022-08-31T03:40:53.247Z,51.21
2022-08-31T03:43:23.268Z,51.48
2022-08-31T03:45:54.033Z,51.80
2022-08-31T03:48:23.990Z,51.50
2022-08-31T03:50:54.325Z,51.31
2022-08-31T03:53:29.279Z,51.27
2022-08-31T03:56:05.249Z,51.14
2022-08-31T03:58:38.735Z,51.33
2022-08-31T04:01:09.813Z,51.34
2022-08-31T04:03:59.646Z,51.18
2022-08-31T04:06:48.046Z,51.33
2022-08-31T04:09:36.679Z,51.17
2022-08-31T04:12:29.608Z,51.50
2022-08-31T04:15:17.257Z,51.62
2022-08-31T04:18:23.056Z,51.16
2022-08-31T04:20:52.904Z,51.39
2022-08-31T04:23:24.473Z,51.76
2022-08-31T04:25:56.029Z,51.52
2022-08-31T04:28:28.574Z,51.64
2022-08-31T04:31:00.079Z,51.75
2022-08-31T04:33:30.030Z,51.58
2022-08-31T04:36:00.364Z,51.08
2022-08-31T04:38:31.296Z,51.25
2022-08-31T04:41:05.649Z,51.43
2022-08-31T04:43:41.256Z,51.06
2022-08-31T04:46:11.378Z,51.15
2022-08-31T04:48:42.333Z,51.20
2022-08-31T04:51:14.879Z,50.96
2022-08-31T04:53:46.425Z,51.59
2022-08-31T04:56:21.286Z,51.14
2022-08-31T04:58:55.901Z,50.91
2022-08-31T05:01:28.683Z,50.66
2022-08-31T05:04:26.036Z,51.05
2022-08-31T05:06:55.890Z,50.77
2022-08-31T05:09:27.264Z,50.57
2022-08-31T05:11:59.704Z,50.44
2022-08-31T05:14:32.286Z,50.02
2022-08-31T05:17:14.821Z,50.10
2022-08-31T05:19:45.436Z,50.01
2022-08-31T05:22:17.836Z,49.81
2022-08-31T05:24:50.191Z,49.73
2022-08-31T05:27:20.795Z,49.82
2022-08-31T05:29:53.158Z,49.79
2022-08-31T05:32:41.451Z,49.18
2022-08-31T05:35:13.838Z,48.83
2022-08-31T05:37:46.053Z,49.11
2022-08-31T05:40:16.077Z,49.39
2022-08-31T05:42:45.907Z,48.93
2022-08-31T05:45:19.489Z,48.54
2022-08-31T05:47:50.791Z,48.58
2022-08-31T05:50:20.936Z,48.61
2022-08-31T05:52:50.983Z,48.34
2022-08-31T05:55:21.209Z,48.60
2022-08-31T05:57:52.724Z,48.08
2022-08-31T06:00:26.659Z,47.93
2022-08-31T06:03:08.792Z,47.91
2022-08-31T06:05:38.802Z,47.96
2022-08-31T06:08:13.093Z,47.32
2022-08-31T06:10:45.189Z,46.82
2022-08-31T06:13:16.761Z,46.92
2022-08-31T06:15:49.747Z,46.74
2022-08-31T06:18:21.019Z,46.83
2022-08-31T06:20:51.366Z,46.50
2022-08-31T06:23:21.338Z,46.39
2022-08-31T06:25:54.651Z,46.33
2022-08-31T06:28:24.680Z,46.46
2022-08-31T06:30:57.251Z,46.57
2022-08-31T06:33:27.556Z,46.37
2022-08-31T06:36:12.901Z,45.89
2022-08-31T06:38:59.348Z,45.49
2022-08-31T06:41:39.803Z,45.84
2022-08-31T06:44:41.720Z,45.66
2022-08-31T06:47:23.971Z,44.94
2022-08-31T06:49:57.308Z,45.49
2022-08-31T06:52:27.436Z,44.66
2022-08-31T06:55:13.735Z,44.47
2022-08-31T06:57:56.036Z,44.12
2022-08-31T07:00:44.362Z,44.32
2022-08-31T07:03:35.775Z,43.30
2022-08-31T07:06:09.721Z,43.28
2022-08-31T07:08:41.819Z,43.05
2022-08-31T07:11:17.469Z,42.86
2022-08-31T07:13:47.436Z,42.52
2022-08-31T07:16:20.526Z,42.31
2022-08-31T07:18:55.682Z,42.40
2022-08-31T07:21:28.203Z,42.09
2022-08-31T07:24:01.400Z,42.34
2022-08-31T07:26:36.398Z,41.04
2022-08-31T07:29:10.178Z,41.69
2022-08-31T07:31:44.848Z,40.12
2022-08-31T07:34:20.352Z,40.16
2022-08-31T07:37:22.548Z,40.15
2022-08-31T07:40:07.789Z,39.93
2022-08-31T07:42:40.287Z,40.58
2022-08-31T07:45:16.213Z,39.67
2022-08-31T07:47:48.076Z,39.07
2022-08-31T07:50:22.324Z,39.25
2022-08-31T07:53:18.456Z,38.50
2022-08-31T07:56:04.181Z,38.04
2022-08-31T07:58:35.670Z,38.16
2022-08-31T08:01:05.728Z,36.82
2022-08-31T08:03:36.691Z,37.42
2022-08-31T08:06:32.610Z,37.39
2022-08-31T08:09:21.965Z,36.80
2022-08-31T08:12:22.984Z,37.68
2022-08-31T08:15:00.576Z,37.83
2022-08-31T08:18:07.213Z,36.91
2022-08-31T08:20:44.768Z,36.73
2022-08-31T08:23:28.014Z,36.14
2022-08-31T08:26:21.140Z,35.44
2022-08-31T08:29:05.792Z,36.73
2022-08-31T08:31:40.583Z,36.23
2022-08-31T08:34:10.634Z,35.91
2022-08-31T08:36:41.301Z,35.20
2022-08-31T08:39:14.961Z,35.21
2022-08-31T08:41:58.643Z,36.43
2022-08-31T08:44:30.656Z,35.96
2022-08-31T08:47:05.756Z,35.29
2022-08-31T08:49:49.769Z,34.86
2022-08-31T08:52:27.197Z,34.80
2022-08-31T08:55:05.176Z,34.75
2022-08-31T08:57:39.045Z,34.14
2022-08-31T09:00:13.235Z,34.14
2022-08-31T09:02:58.226Z,34.42
2022-08-31T09:06:02.064Z,32.78
2022-08-31T09:08:59.973Z,33.57
2022-08-31T09:11:39.946Z,32.29
2022-08-31T09:14:26.287Z,32.20
2022-08-31T09:17:06.014Z,32.34
2022-08-31T09:19:56.959Z,33.14
2022-08-31T09:22:26.879Z,33.35
2022-08-31T09:24:59.506Z,33.48
2022-08-31T09:28:07.543Z,33.14
2022-08-31T09:30:43.613Z,32.43
2022-08-31T09:33:21.166Z,33.12
2022-08-31T09:35:56.706Z,32.23
2022-08-31T09:38:31.981Z,32.71
2022-08-31T09:41:03.675Z,32.84
2022-08-31T09:43:41.202Z,30.65
2022-08-31T09:46:14.418Z,30.72
2022-08-31T09:48:51.518Z,30.97
2022-08-31T09:51:30.912Z,30.58
2022-08-31T09:54:19.258Z,30.94
2022-08-31T09:56:55.718Z,31.07
2022-08-31T09:59:40.315Z,30.32
2022-08-31T10:02:14.352Z,30.49
2022-08-31T10:04:51.384Z,29.83
2022-08-31T10:07:37.762Z,29.25
2022-08-31T10:10:28.434Z,29.54
2022-08-31T10:13:05.352Z,29.31
2022-08-31T10:15:44.913Z,29.75
2022-08-31T10:18:20.215Z,29.40
2022-08-31T10:20:56.063Z,29.06
2022-08-31T10:23:36.135Z,29.64
2022-08-31T10:26:10.878Z,28.63
2022-08-31T10:28:49.101Z,29.08
2022-08-31T10:31:25.416Z,29.28
2022-08-31T10:34:14.686Z,29.10
2022-08-31T10:36:44.956Z,28.89
2022-08-31T10:39:25.669Z,28.56
2022-08-31T10:41:56.641Z,27.88
2022-08-31T10:44:36.450Z,27.07
2022-08-31T10:47:14.370Z,27.87
2022-08-31T10:50:03.480Z,29.39
2022-08-31T10:52:37.302Z,28.79
2022-08-31T10:55:15.582Z,28.98
2022-08-31T10:57:54.869Z,30.05
2022-08-31T11:00:58.874Z,30.07
2022-08-31T11:07:53.847Z,28.93
2022-08-31T11:11:17.950Z,27.95
2022-08-31T11:14:03.075Z,27.08
2022-08-31T11:16:47.110Z,25.74
2022-08-31T11:19:50.733Z,24.78
2022-08-31T11:22:41.295Z,24.89
2022-08-31T11:25:50.919Z,23.81
2022-08-31T11:28:34.273Z,23.40
2022-08-31T11:31:14.762Z,23.89
2022-08-31T11:34:14.544Z,25.35
2022-08-31T11:36:55.055Z,26.95
2022-08-31T11:39:46.052Z,27.96
2022-08-31T11:43:05.296Z,28.29
2022-08-31T11:45:37.713Z,28.41
2022-08-31T11:48:29.988Z,27.75
2022-08-31T11:51:07.327Z,27.16
2022-08-31T11:53:44.360Z,26.17
2022-08-31T11:56:14.544Z,26.51
2022-08-31T11:58:45.210Z,26.03
2022-08-31T12:01:43.165Z,27.73
2022-08-31T12:04:46.174Z,28.90
2022-08-31T12:07:28.513Z,28.06
2022-08-31T12:10:30.329Z,28.64
2022-08-31T12:13:36.496Z,28.70
2022-08-31T12:16:30.159Z,29.09
2022-08-31T12:19:31.574Z,29.15
2022-08-31T12:22:24.686Z,27.93
2022-08-31T12:25:09.395Z,29.39
2022-08-31T12:27:50.379Z,28.20
2022-08-31T12:30:23.696Z,28.40
2022-08-31T12:33:01.946Z,28.21
2022-08-31T12:35:34.433Z,29.19
2022-08-31T12:38:07.234Z,28.15
2022-08-31T12:40:44.253Z,28.91
2022-08-31T12:43:19.754Z,28.50
2022-08-31T12:46:10.844Z,28.33
2022-08-31T12:49:08.410Z,28.95
2022-08-31T12:51:43.314Z,29.39
2022-08-31T12:54:53.568Z,29.76
2022-08-31T12:57:41.988Z,29.23
2022-08-31T13:00:21.832Z,28.55
2022-08-31T13:02:56.208Z,27.34
2022-08-31T13:05:29.517Z,27.96
2022-08-31T13:08:01.482Z,27.64
2022-08-31T13:10:34.772Z,27.90
2022-08-31T13:13:08.373Z,27.91
2022-08-31T13:15:42.673Z,27.71
2022-08-31T13:18:14.573Z,27.99
2022-08-31T13:20:46.862Z,27.80
2022-08-31T13:23:26.716Z,28.12
2022-08-31T13:26:03.058Z,28.49
2022-08-31T13:28:35.801Z,28.10
2022-08-31T13:31:11.068Z,28.34
2022-08-31T13:33:42.917Z,28.64
2022-08-31T13:36:32.181Z,28.88
2022-08-31T13:39:05.648Z,28.48
2022-08-31T13:41:40.152Z,28.80
2022-08-31T13:44:13.148Z,28.49
2022-08-31T13:47:00.309Z,29.18
2022-08-31T13:49:35.865Z,28.19
2022-08-31T13:52:08.558Z,28.47
2022-08-31T13:54:41.979Z,29.31
2022-08-31T13:57:25.423Z,28.81
2022-08-31T13:59:55.865Z,28.76
2022-08-31T14:02:38.358Z,28.74
2022-08-31T14:05:12.856Z,28.92
2022-08-31T14:07:57.716Z,29.19
2022-08-31T14:10:30.604Z,30.45
2022-08-31T14:13:03.525Z,29.46
2022-08-31T14:15:38.533Z,28.95
2022-08-31T14:18:27.491Z,29.74
2022-08-31T14:21:21.816Z,29.04
2022-08-31T14:23:54.507Z,29.46
2022-08-31T14:26:28.141Z,28.77
2022-08-31T14:29:01.600Z,29.33
2022-08-31T14:31:37.558Z,29.51
2022-08-31T14:34:23.470Z,28.93
2022-08-31T14:36:57.825Z,30.12
2022-08-31T14:39:32.712Z,30.33
2022-08-31T14:42:06.998Z,29.18
2022-08-31T14:44:40.219Z,29.07
2022-08-31T14:47:12.361Z,29.27
2022-08-31T14:49:45.555Z,28.91
2022-08-31T14:52:16.170Z,29.11
2022-08-31T14:54:47.781Z,28.47
2022-08-31T14:57:25.241Z,28.80
2022-08-31T14:59:57.855Z,28.38
2022-08-31T15:02:31.271Z,28.60
2022-08-31T15:05:04.847Z,29.21
2022-08-31T15:07:35.288Z,28.79
2022-08-31T15:10:06.783Z,28.69
2022-08-31T15:12:37.986Z,28.84
2022-08-31T15:15:09.966Z,29.57
2022-08-31T15:17:40.796Z,28.66
2022-08-31T15:20:14.133Z,30.22
2022-08-31T15:22:44.617Z,29.00
2022-08-31T15:25:15.214Z,30.27
2022-08-31T15:27:46.739Z,29.06
2022-08-31T15:30:20.022Z,30.08
2022-08-31T15:32:50.593Z,28.58
2022-08-31T15:35:26.557Z,28.68
2022-08-31T15:38:01.346Z,28.87
2022-08-31T15:40:38.738Z,28.61
2022-08-31T15:43:15.833Z,29.52
2022-08-31T15:45:45.865Z,28.47
2022-08-31T15:48:28.172Z,29.01
2022-08-31T15:51:01.438Z,27.85
2022-08-31T15:53:32.114Z,28.43
2022-08-31T15:56:08.287Z,28.41
2022-08-31T15:58:39.495Z,28.96
2022-08-31T16:01:16.181Z,28.34
2022-08-31T16:03:52.311Z,29.06
2022-08-31T16:06:28.447Z,28.66
2022-08-31T16:08:58.885Z,29.39
2022-08-31T16:11:33.486Z,29.63
2022-08-31T16:14:11.201Z,29.29
2022-08-31T16:16:43.862Z,29.82
2022-08-31T16:19:34.094Z,29.46
2022-08-31T16:22:09.182Z,29.50
2022-08-31T16:24:39.803Z,29.60
2022-08-31T16:27:12.232Z,28.99
2022-08-31T16:29:46.370Z,29.92
2022-08-31T16:32:16.360Z,29.08
2022-08-31T16:34:46.435Z,29.51
2022-08-31T16:37:18.922Z,29.37
2022-08-31T16:39:49.710Z,29.25
2022-08-31T16:42:21.189Z,29.82
2022-08-31T16:44:51.149Z,29.54
2022-08-31T16:47:24.136Z,29.83
2022-08-31T16:49:51.811Z,29.66
2022-08-31T16:52:27.337Z,29.40
2022-08-31T16:54:59.216Z,30.50
2022-08-31T16:57:32.795Z,31.91
2022-08-31T17:00:04.774Z,32.34
2022-08-31T17:02:35.245Z,32.96
2022-08-31T17:05:05.260Z,32.90
2022-08-31T17:07:37.726Z,32.88
2022-08-31T17:10:08.520Z,32.68
2022-08-31T17:12:42.122Z,33.09
2022-08-31T17:15:14.042Z,32.96
2022-08-31T17:17:48.172Z,32.98
2022-08-31T17:20:19.371Z,32.93
2022-08-31T17:22:53.280Z,33.93
2022-08-31T17:25:24.683Z,33.30
2022-08-31T17:27:59.759Z,33.62
2022-08-31T17:30:30.919Z,33.93
2022-08-31T17:33:01.455Z,33.44
2022-08-31T17:35:32.084Z,34.27
2022-08-31T17:38:04.572Z,33.76
2022-08-31T17:40:34.536Z,34.41
2022-08-31T17:43:04.626Z,34.73
2022-08-31T17:45:34.470Z,34.35
2022-08-31T17:48:04.504Z,35.36
2022-08-31T17:50:34.446Z,34.69
2022-08-31T17:53:09.496Z,35.35
2022-08-31T17:55:39.814Z,35.26
2022-08-31T17:58:09.754Z,34.76
2022-08-31T18:00:39.667Z,35.11
2022-08-31T18:03:09.710Z,35.83
2022-08-31T18:05:43.449Z,35.64
2022-08-31T18:08:16.904Z,36.52
2022-08-31T18:10:54.093Z,36.02
2022-08-31T18:13:26.712Z,35.93
2022-08-31T18:15:56.793Z,35.76
2022-08-31T18:18:29.358Z,35.86
2022-08-31T18:20:59.626Z,35.58
2022-08-31T18:23:32.046Z,36.17
2022-08-31T18:26:01.973Z,35.53
2022-08-31T18:28:31.862Z,35.29
2022-08-31T18:31:08.345Z,35.72
2022-08-31T18:33:39.780Z,35.84
2022-08-31T18:36:12.458Z,37.00
2022-08-31T18:38:44.892Z,35.61
2022-08-31T18:41:28.211Z,35.86
2022-08-31T18:44:10.596Z,35.74
2022-08-31T18:46:40.812Z,35.95
2022-08-31T18:49:12.389Z,35.91
2022-08-31T18:51:46.398Z,35.80
2022-08-31T18:54:19.346Z,36.08
2022-08-31T18:56:49.732Z,35.73
2022-08-31T18:59:21.159Z,36.30
2022-08-31T19:01:51.482Z,35.91
2022-08-31T19:04:22.465Z,36.61
2022-08-31T19:06:52.354Z,36.51
2022-08-31T19:09:24.830Z,36.54
2022-08-31T19:11:55.906Z,36.53
2022-08-31T19:14:28.518Z,36.54
2022-08-31T19:17:03.688Z,36.49
2022-08-31T19:19:34.817Z,37.27
2022-08-31T19:22:04.641Z,36.80
2022-08-31T19:24:40.864Z,37.33
2022-08-31T19:27:13.957Z,36.75
2022-08-31T19:29:44.755Z,37.07
2022-08-31T19:32:14.585Z,36.71
2022-08-31T19:34:48.085Z,37.54
2022-08-31T19:37:18.583Z,37.27
2022-08-31T19:39:51.047Z,37.36
2022-08-31T19:42:39.708Z,36.88
2022-08-31T19:45:40.680Z,37.23
2022-08-31T19:48:02.667Z,37.35
2022-08-31T19:50:32.698Z,37.06
2022-08-31T19:53:03.549Z,37.87
2022-08-31T19:55:36.095Z,37.61
2022-08-31T19:58:06.124Z,38.35
2022-08-31T20:00:36.181Z,38.13
2022-08-31T20:03:06.377Z,38.46
2022-08-31T20:05:40.061Z,38.75
2022-08-31T20:08:12.383Z,38.44
2022-08-31T20:10:46.237Z,38.08
2022-08-31T20:13:16.157Z,38.25
2022-08-31T20:15:47.758Z,38.95
2022-08-31T20:18:18.051Z,38.71
2022-08-31T20:20:50.957Z,38.65
2022-08-31T20:23:22.593Z,38.81
2022-08-31T20:25:55.809Z,39.13
2022-08-31T20:28:28.229Z,39.23
2022-08-31T20:31:00.278Z,39.41
2022-08-31T20:33:30.663Z,39.30
2022-08-31T20:36:00.569Z,39.35
2022-08-31T20:38:40.209Z,39.46
2022-08-31T20:41:12.655Z,39.59
2022-08-31T20:43:44.584Z,39.39
2022-08-31T20:46:36.168Z,39.68
2022-08-31T20:49:18.639Z,40.18
2022-08-31T20:51:48.741Z,39.43
2022-08-31T20:54:18.878Z,39.55
2022-08-31T20:56:51.866Z,39.58
2022-08-31T20:59:23.675Z,39.94
2022-08-31T21:01:56.837Z,40.23
2022-08-31T21:04:26.897Z,39.42
2022-08-31T21:07:14.961Z,40.08
2022-08-31T21:09:46.571Z,39.66
2022-08-31T21:12:21.106Z,40.24
2022-08-31T21:14:51.484Z,39.58
2022-08-31T21:17:21.955Z,39.52
2022-08-31T21:19:53.136Z,40.59
2022-08-31T21:22:23.016Z,39.58
2022-08-31T21:24:52.855Z,39.44
2022-08-31T21:27:27.281Z,39.43
2022-08-31T21:29:57.189Z,39.62
2022-08-31T21:32:27.102Z,40.33
2022-08-31T21:34:58.544Z,39.69
2022-08-31T21:37:28.896Z,39.95
2022-08-31T21:39:58.710Z,39.82
2022-08-31T21:42:31.236Z,39.98
2022-08-31T21:45:01.031Z,40.24
2022-08-31T21:47:31.177Z,40.48
2022-08-31T21:50:01.008Z,40.71
2022-08-31T21:52:31.125Z,40.16
2022-08-31T21:55:05.576Z,40.48
2022-08-31T21:57:37.990Z,40.42
2022-08-31T22:00:13.651Z,40.29
2022-08-31T22:02:47.178Z,40.67
2022-08-31T22:05:18.018Z,41.18
2022-08-31T22:07:49.320Z,40.83
2022-08-31T22:10:20.509Z,40.56
2022-08-31T22:12:52.968Z,40.83
2022-08-31T22:15:23.901Z,40.71
2022-08-31T22:18:15.480Z,40.72
2022-08-31T22:20:45.591Z,41.13
2022-08-31T22:23:16.220Z,41.36
2022-08-31T22:25:46.117Z,40.80
2022-08-31T22:28:20.918Z,41.33
2022-08-31T22:30:51.089Z,40.83
2022-08-31T22:33:21.633Z,41.21
2022-08-31T22:35:51.491Z,41.68
2022-08-31T22:38:21.430Z,40.84
2022-08-31T22:40:53.484Z,41.26
2022-08-31T22:43:25.858Z,41.27
2022-08-31T22:45:55.757Z,41.45
2022-08-31T22:48:25.679Z,41.47
2022-08-31T22:50:55.532Z,41.13
2022-08-31T22:53:25.739Z,41.11
2022-08-31T22:55:55.583Z,41.47
2022-08-31T22:58:28.114Z,41.27
2022-08-31T23:00:58.033Z,41.16
2022-08-31T23:03:27.800Z,41.92
2022-08-31T23:05:57.962Z,41.42
2022-08-31T23:08:27.764Z,41.40
2022-08-31T23:10:57.596Z,41.82
2022-08-31T23:13:50.311Z,41.66
2022-08-31T23:16:20.278Z,41.90
2022-08-31T23:18:53.821Z,41.51
2022-08-31T23:21:24.967Z,41.72
2022-08-31T23:23:55.561Z,41.52
2022-08-31T23:26:27.578Z,41.76
2022-08-31T23:29:05.939Z,41.46
2022-08-31T23:31:36.883Z,41.55
2022-08-31T23:34:11.555Z,41.54
2022-08-31T23:36:43.657Z,41.74
2022-08-31T23:39:13.492Z,41.45
2022-08-31T23:41:45.176Z,41.62
2022-08-31T23:44:19.375Z,41.15
2022-08-31T23:46:49.590Z,41.02
2022-08-31T23:49:22.610Z,41.50
2022-08-31T23:51:52.719Z,41.17
2022-08-31T23:54:23.351Z,41.59
2022-08-31T23:56:58.014Z,41.25
2022-08-31T23:59:31.675Z,41.42
